Time;durP1;ratioP1;P1;durP2;ratioP2;P2;SDS_P1;SDS_P2;PMS_P1;PMS_P2;Temp;Humidity;BMP_temperature;BMP_pressure;BME280_temperature;BME280_humidity;BME280_pressure;Samples;Min_cycle;Max_cycle;Signal;HPM_P1;HPM_P2
2021/05/07 00:00:25;;;;;;;4.43;4.07;;;;;;;8.89;79.17;97925.72;4990171;28;42393;-74
2021/05/07 00:02:53;;;;;;;5.93;4.60;;;;;;;8.85;79.25;97914.53;4995137;28;40486;-74
2021/05/07 00:05:20;;;;;;;5.90;5.33;;;;;;;8.89;79.26;97917.81;5010979;28;40531;-75
2021/05/07 00:07:47;;;;;;;4.83;4.50;;;;;;;8.85;79.03;97919.81;5010632;28;42725;-77
2021/05/07 00:10:15;;;;;;;5.77;5.20;;;;;;;8.82;79.26;97917.38;5011756;28;42800;-75
2021/05/07 00:12:42;;;;;;;5.33;4.80;;;;;;;8.83;79.01;97919.06;4993757;28;39674;-75
2021/05/07 00:15:11;;;;;;;4.80;4.40;;;;;;;8.81;79.08;97928.91;5026666;28;42322;-77
2021/05/07 00:17:38;;;;;;;5.57;5.17;;;;;;;8.79;78.76;97933.44;4993898;28;41417;-81
2021/05/07 00:20:07;;;;;;;5.30;4.80;;;;;;;8.76;78.65;97931.03;5011798;28;41847;-75
2021/05/07 00:22:34;;;;;;;6.03;4.97;;;;;;;8.41;79.12;97882.47;4993047;28;40952;-75
2021/05/07 00:25:01;;;;;;;5.20;4.70;;;;;;;8.72;78.80;97934.81;5010032;28;42348;-76
2021/05/07 00:27:28;;;;;;;6.27;5.77;;;;;;;8.65;78.69;97930.94;5009442;28;43511;-78
2021/05/07 00:29:58;;;;;;;6.07;5.57;;;;;;;8.60;79.13;97925.13;5011664;28;41900;-77
2021/05/07 00:32:25;;;;;;;6.17;5.63;;;;;;;8.55;78.93;97922.78;5026380;28;40100;-78
2021/05/07 00:34:53;;;;;;;5.07;4.67;;;;;;;8.31;79.04;97911.25;5010584;28;42003;-75
2021/05/07 00:37:20;;;;;;;6.73;5.60;;;;;;;8.48;79.18;97937.38;5010096;28;42213;-78
2021/05/07 00:39:48;;;;;;;6.07;5.57;;;;;;;8.48;79.12;97949.72;5009460;28;41263;-79
2021/05/07 00:42:15;;;;;;;5.10;4.70;;;;;;;8.44;79.11;97954.34;4994354;28;38613;-76
2021/05/07 00:44:43;;;;;;;5.73;5.13;;;;;;;8.47;78.94;97950.66;5009761;28;43573;-76
2021/05/07 00:47:11;;;;;;;5.97;5.37;;;;;;;8.48;78.84;97957.63;4994235;28;41936;-76
2021/05/07 00:49:41;;;;;;;5.67;5.20;;;;;;;8.47;78.82;97966.50;5010166;28;41968;-74
2021/05/07 00:52:14;;;;;;;5.50;5.07;;;;;;;8.29;78.97;97943.00;5026429;28;39856;-75
2021/05/07 00:54:41;;;;;;;5.77;5.30;;;;;;;8.44;78.62;97969.34;5009473;28;41554;-77
2021/05/07 00:57:09;;;;;;;6.70;6.10;;;;;;;8.34;78.33;97955.09;4993825;28;42059;-77
2021/05/07 00:59:37;;;;;;;6.63;6.03;;;;;;;8.43;78.34;97970.28;5009880;28;42671;-78
2021/05/07 01:02:04;;;;;;;7.50;6.90;;;;;;;8.37;78.49;97965.44;5009856;28;39859;-77
2021/05/07 01:04:31;;;;;;;5.87;5.37;;;;;;;8.42;78.38;97968.59;4989396;28;40628;-75
2021/05/07 01:07:00;;;;;;;7.10;6.40;;;;;;;8.41;78.50;97972.16;4974007;28;42388;-77
2021/05/07 01:09:28;;;;;;;8.00;7.30;;;;;;;8.41;78.23;97988.00;5007024;28;41809;-76
2021/05/07 01:11:55;;;;;;;7.10;6.50;;;;;;;8.38;78.01;97986.44;5010248;28;40866;-78
2021/05/07 01:14:23;;;;;;;7.77;7.07;;;;;;;8.37;78.38;97965.44;5005165;28;41857;-76
2021/05/07 01:16:50;;;;;;;8.70;7.90;;;;;;;8.41;78.16;97977.44;4990389;28;43505;-78
2021/05/07 01:19:17;;;;;;;8.90;8.10;;;;;;;8.34;78.52;97976.19;5018900;28;42283;-79
2021/05/07 01:21:45;;;;;;;8.50;7.80;;;;;;;8.39;78.49;97984.66;5002345;28;39387;-78
2021/05/07 01:24:13;;;;;;;8.30;7.50;;;;;;;8.43;78.51;97986.94;5010785;28;41592;-79
2021/05/07 01:26:41;;;;;;;9.80;8.90;;;;;;;8.44;78.54;97982.53;4993583;28;42076;-78
2021/05/07 01:29:10;;;;;;;9.13;8.27;;;;;;;8.45;78.66;97992.13;5010038;28;41289;-76
2021/05/07 01:31:41;;;;;;;9.40;8.53;;;;;;;8.46;78.23;97986.75;4993523;28;40074;-76
2021/05/07 01:34:09;;;;;;;7.97;7.07;;;;;;;8.45;78.18;97995.63;5009592;28;41652;-77
2021/05/07 01:36:36;;;;;;;8.13;7.43;;;;;;;8.43;78.49;97988.75;4993031;28;41679;-77
2021/05/07 01:39:06;;;;;;;7.60;6.83;;;;;;;8.40;78.52;97981.06;5009141;28;42259;-77
2021/05/07 01:41:33;;;;;;;7.07;6.30;;;;;;;8.40;78.11;97992.47;5009980;28;40338;-77
2021/05/07 01:44:00;;;;;;;7.47;6.70;;;;;;;8.39;78.14;97984.66;5006065;28;41959;-79
2021/05/07 01:46:28;;;;;;;6.97;6.37;;;;;;;8.36;78.29;97984.84;4990131;28;42654;-78
2021/05/07 01:48:55;;;;;;;8.47;7.77;;;;;;;8.27;77.88;97992.41;5002573;28;43024;-76
2021/05/07 01:51:23;;;;;;;8.27;7.47;;;;;;;8.24;78.09;97989.97;5009796;28;40759;-76
2021/05/07 01:53:50;;;;;;;7.63;6.93;;;;;;;8.21;77.92;97992.81;4989161;28;41721;-77
2021/05/07 01:56:18;;;;;;;7.60;6.90;;;;;;;8.06;77.83;97993.81;4990686;28;42617;-79
2021/05/07 01:58:48;;;;;;;7.80;7.10;;;;;;;8.11;77.84;98007.56;5001574;28;41169;-78
2021/05/07 02:01:18;;;;;;;7.50;6.80;;;;;;;8.06;78.00;98004.34;5009008;28;40941;-78
2021/05/07 02:03:47;;;;;;;7.43;6.73;;;;;;;8.00;77.88;97999.50;5005422;28;41332;-78
2021/05/07 02:06:20;;;;;;;7.77;7.07;;;;;;;7.96;77.99;98012.97;4989871;28;41857;-77
2021/05/07 02:08:49;;;;;;;7.43;6.67;;;;;;;7.93;78.17;98014.00;5000126;28;42306;-77
2021/05/07 02:11:18;;;;;;;7.83;7.03;;;;;;;7.90;78.18;98014.25;5007387;28;40764;-75
2021/05/07 02:13:46;;;;;;;7.40;6.70;;;;;;;7.90;78.11;98019.50;5007824;28;41738;-75
2021/05/07 02:16:13;;;;;;;8.00;7.20;;;;;;;7.64;78.37;97986.09;5008513;28;43170;-77
2021/05/07 02:18:42;;;;;;;7.53;6.90;;;;;;;7.88;78.06;98022.25;4992286;28;41223;-77
2021/05/07 02:21:13;;;;;;;7.50;6.80;;;;;;;7.88;78.18;98024.03;5001048;28;39840;-77
2021/05/07 02:23:40;;;;;;;7.93;7.13;;;;;;;7.86;78.01;98023.28;4995471;28;42483;-78
2021/05/07 02:26:08;;;;;;;8.33;7.53;;;;;;;7.84;77.95;98011.97;4973428;28;41540;-77
2021/05/07 02:28:42;;;;;;;7.67;6.97;;;;;;;7.76;78.34;98001.09;5000159;28;41985;-78
2021/05/07 02:31:11;;;;;;;8.87;7.20;;;;;;;7.84;78.07;98017.25;4993135;28;39034;-77
2021/05/07 02:33:39;;;;;;;7.43;6.70;;;;;;;7.83;78.11;98019.03;4988715;28;40982;-74
2021/05/07 02:36:08;;;;;;;8.70;7.90;;;;;;;7.77;78.26;98010.72;4989908;28;42624;-75
2021/05/07 02:38:37;;;;;;;7.70;6.90;;;;;;;7.78;78.30;98007.97;4982254;28;41902;-76
2021/05/07 02:41:05;;;;;;;7.90;7.10;;;;;;;7.91;78.18;98021.22;4992748;28;39484;-75
2021/05/07 02:43:32;;;;;;;7.90;7.10;;;;;;;7.89;77.89;98017.81;5003610;28;41604;-75
2021/05/07 02:46:01;;;;;;;8.33;7.37;;;;;;;7.82;77.93;98013.88;4972986;28;42258;-78
2021/05/07 02:48:29;;;;;;;7.57;6.83;;;;;;;7.91;77.70;98037.03;4981371;28;41252;-75
2021/05/07 02:50:56;;;;;;;7.70;6.97;;;;;;;7.96;77.81;98041.97;4992037;28;39925;-75
2021/05/07 02:53:23;;;;;;;7.60;6.90;;;;;;;7.96;77.75;98029.63;4988569;28;40535;-78
2021/05/07 02:55:50;;;;;;;7.43;6.60;;;;;;;7.97;77.67;98033.97;4994189;28;42722;-75
2021/05/07 02:58:18;;;;;;;7.83;6.90;;;;;;;7.99;77.78;98033.88;4989476;28;45087;-78
2021/05/07 03:00:45;;;;;;;8.83;7.97;;;;;;;7.93;77.48;98030.69;4972572;28;38762;-76
2021/05/07 03:03:13;;;;;;;6.87;6.20;;;;;;;7.88;77.87;98031.94;4975495;28;40707;-76
2021/05/07 03:05:40;;;;;;;7.30;6.60;;;;;;;7.83;77.90;98028.75;4989523;28;42553;-77
2021/05/07 03:08:07;;;;;;;7.83;6.83;;;;;;;7.76;77.64;98030.09;4993090;28;43514;-76
2021/05/07 03:10:34;;;;;;;7.37;6.67;;;;;;;7.44;78.01;97995.25;5008302;28;38773;-77
2021/05/07 03:13:01;;;;;;;8.37;7.53;;;;;;;7.66;77.99;98037.75;5007222;28;41480;-75
2021/05/07 03:15:29;;;;;;;8.37;7.53;;;;;;;7.71;78.17;98050.63;5007769;28;42507;-77
2021/05/07 03:17:56;;;;;;;9.87;8.13;;;;;;;7.60;77.92;98032.00;5004460;28;42721;-75
2021/05/07 03:20:24;;;;;;;8.93;7.47;;;;;;;7.74;78.15;98055.69;4988397;28;39315;-76
2021/05/07 03:22:51;;;;;;;7.30;6.60;;;;;;;7.76;77.97;98054.66;4993294;28;41835;-75
2021/05/07 03:25:21;;;;;;;8.17;7.37;;;;;;;7.76;78.18;98053.81;5007820;28;43606;-77
2021/05/07 03:27:48;;;;;;;7.00;6.30;;;;;;;7.78;78.19;98060.69;5008501;28;41289;-76
2021/05/07 03:30:16;;;;;;;7.60;6.80;;;;;;;7.77;77.99;98058.16;4991747;28;39360;-79
2021/05/07 03:32:43;;;;;;;7.03;6.43;;;;;;;7.77;78.21;98056.34;5009314;28;40863;-78
2021/05/07 03:35:11;;;;;;;7.63;6.50;;;;;;;7.75;78.12;98057.41;5008208;28;43003;-76
2021/05/07 03:37:39;;;;;;;8.60;7.70;;;;;;;7.71;77.89;98045.34;5007941;28;41458;-77
2021/05/07 03:40:07;;;;;;;7.67;6.77;;;;;;;7.75;78.17;98057.41;5009774;28;41527;-76
2021/05/07 03:42:35;;;;;;;8.03;7.23;;;;;;;7.74;78.21;98061.81;5007544;28;41516;-77
2021/05/07 03:45:02;;;;;;;6.73;6.03;;;;;;;7.68;78.30;98059.56;5008403;28;42571;-75
2021/05/07 03:47:30;;;;;;;7.83;6.40;;;;;;;7.46;77.91;98024.97;5007690;28;41974;-76
2021/05/07 03:49:57;;;;;;;7.20;6.50;;;;;;;7.62;77.99;98064.38;5007577;28;39936;-78
2021/05/07 03:52:24;;;;;;;9.70;6.90;;;;;;;7.65;78.30;98077.38;5008292;28;41586;-77
2021/05/07 03:54:53;;;;;;;7.47;6.77;;;;;;;7.62;78.05;98081.03;5008260;28;43543;-77
2021/05/07 03:57:22;;;;;;;7.63;6.77;;;;;;;7.68;78.35;98085.91;4990392;28;41235;-76
2021/05/07 03:59:49;;;;;;;8.37;6.67;;;;;;;7.61;78.29;98070.59;4990639;28;38794;-75
2021/05/07 04:02:16;;;;;;;7.70;6.90;;;;;;;7.74;78.06;98092.59;5007177;28;41736;-78
2021/05/07 04:04:44;;;;;;;7.03;6.33;;;;;;;7.79;78.07;98093.16;4987519;28;41539;-78
2021/05/07 04:07:12;;;;;;;7.03;6.27;;;;;;;7.81;78.19;98099.16;4987096;28;42828;-77
2021/05/07 04:09:43;;;;;;;9.27;6.97;;;;;;;7.82;77.95;98095.56;5006343;28;39998;-77
2021/05/07 04:12:17;;;;;;;7.83;6.53;;;;;;;7.77;78.09;98084.50;5008200;28;42373;-78
2021/05/07 04:14:44;;;;;;;7.67;6.80;;;;;;;7.86;78.09;98094.44;5003669;28;42427;-77
2021/05/07 04:17:11;;;;;;;7.37;6.67;;;;;;;7.80;77.96;98098.31;4970377;28;41309;-78
2021/05/07 04:19:39;;;;;;;7.07;6.47;;;;;;;7.87;77.98;98114.59;4969936;28;39002;-77
2021/05/07 04:22:06;;;;;;;7.23;6.53;;;;;;;7.83;77.86;98102.53;4988334;28;41830;-77
2021/05/07 04:24:33;;;;;;;6.40;5.80;;;;;;;7.65;77.61;98077.38;4989035;28;44943;-78
2021/05/07 04:27:01;;;;;;;7.10;6.50;;;;;;;7.89;77.68;98123.25;4991243;28;42388;-77
2021/05/07 04:29:29;;;;;;;7.43;6.73;;;;;;;7.91;77.91;98126.66;4995341;28;40372;-76
2021/05/07 04:31:57;;;;;;;7.03;6.33;;;;;;;7.96;77.72;98129.81;4988771;28;41616;-76
2021/05/07 04:34:24;;;;;;;7.23;6.53;;;;;;;7.95;77.67;98133.41;5006728;28;42514;-77
2021/05/07 04:36:53;;;;;;;6.70;6.00;;;;;;;7.99;77.75;98140.19;4986579;28;41834;-77
2021/05/07 04:39:20;;;;;;;6.80;6.10;;;;;;;8.04;77.75;98143.34;5005979;28;40322;-76
2021/05/07 04:41:48;;;;;;;7.23;6.53;;;;;;;8.07;77.36;98153.72;5009972;28;42303;-78
2021/05/07 04:44:15;;;;;;;6.60;5.90;;;;;;;8.11;77.61;98164.91;5011357;28;43193;-78
2021/05/07 04:46:43;;;;;;;6.60;6.00;;;;;;;8.13;77.16;98161.25;5010501;28;42212;-75
2021/05/07 04:49:10;;;;;;;6.70;6.10;;;;;;;8.19;77.21;98173.19;4999044;28;39838;-76
2021/05/07 04:51:37;;;;;;;6.20;5.60;;;;;;;8.13;76.94;98160.41;4997367;28;40850;-75
2021/05/07 04:54:06;;;;;;;6.33;5.40;;;;;;;8.24;76.70;98169.31;4999024;28;42807;-77
2021/05/07 04:56:33;;;;;;;6.77;6.17;;;;;;;8.26;76.65;98178.00;4997371;28;41732;-77
2021/05/07 04:59:00;;;;;;;6.43;5.83;;;;;;;8.28;76.51;98184.00;4998866;28;38852;-77
2021/05/07 05:01:27;;;;;;;6.87;6.27;;;;;;;8.30;76.83;98195.28;4997877;28;40727;-78
2021/05/07 05:03:55;;;;;;;7.13;6.43;;;;;;;8.30;76.68;98197.09;5001509;28;43573;-76
2021/05/07 05:06:23;;;;;;;7.60;6.80;;;;;;;8.18;76.56;98184.66;5007846;28;41942;-76
2021/05/07 05:08:50;;;;;;;7.07;6.37;;;;;;;8.26;76.34;98198.25;4992984;28;38961;-77
2021/05/07 05:11:17;;;;;;;9.50;7.40;;;;;;;8.25;76.54;98205.31;5009460;28;42101;-76
2021/05/07 05:13:45;;;;;;;8.77;7.80;;;;;;;8.19;76.23;98202.19;5007095;28;43370;-76
2021/05/07 05:16:12;;;;;;;9.67;7.27;;;;;;;8.23;76.53;98228.28;5001854;28;43494;-77
2021/05/07 05:18:39;;;;;;;8.63;7.73;;;;;;;8.26;76.57;98238.66;4983781;28;41304;-76
2021/05/07 05:21:09;;;;;;;8.33;7.47;;;;;;;8.26;76.56;98233.38;5024831;28;41623;-75
2021/05/07 05:23:38;;;;;;;8.63;7.53;;;;;;;8.28;76.17;98233.28;5008446;28;43455;-75
2021/05/07 05:26:06;;;;;;;7.97;7.17;;;;;;;8.37;76.24;98231.88;5009294;28;42812;-75
2021/05/07 05:28:35;;;;;;;8.23;7.43;;;;;;;8.33;76.17;98218.03;5002165;28;40667;-77
2021/05/07 05:31:03;;;;;;;8.10;7.27;;;;;;;8.56;75.97;98237.66;4989885;28;41085;-75
2021/05/07 05:33:30;;;;;;;7.73;7.03;;;;;;;8.64;75.67;98251.25;4994770;28;42577;-77
2021/05/07 05:35:57;;;;;;;8.63;7.83;;;;;;;8.67;75.29;98248.38;4989723;28;42794;-75
2021/05/07 05:38:26;;;;;;;8.77;7.90;;;;;;;8.74;74.80;98254.13;4997984;28;39947;-76
2021/05/07 05:40:54;;;;;;;8.50;7.20;;;;;;;8.82;74.56;98265.88;5008860;28;40887;-75
2021/05/07 05:43:22;;;;;;;7.00;6.37;;;;;;;8.91;74.42;98267.91;5007887;28;42735;-75
2021/05/07 05:45:50;;;;;;;7.27;6.57;;;;;;;8.98;73.30;98258.66;5008780;28;41865;-77
2021/05/07 05:48:18;;;;;;;7.40;6.70;;;;;;;8.94;72.84;98251.88;5008297;28;39821;-77
2021/05/07 05:50:47;;;;;;;6.13;5.63;;;;;;;8.98;70.91;98269.22;5008667;28;40565;-76
2021/05/07 05:53:15;;;;;;;6.27;5.77;;;;;;;9.06;71.09;98270.50;5008818;28;42033;-77
2021/05/07 05:55:44;;;;;;;6.30;5.80;;;;;;;9.11;71.11;98269.25;5008593;28;43186;-77
2021/05/07 05:58:11;;;;;;;7.80;5.80;;;;;;;9.17;70.50;98246.84;5009272;28;40140;-75
2021/05/07 06:00:39;;;;;;;8.13;7.20;;;;;;;9.44;70.21;98268.81;5013082;28;41704;-77
2021/05/07 06:03:07;;;;;;;10.87;7.03;;;;;;;9.61;69.76;98271.16;5016158;28;41461;-76
2021/05/07 06:05:34;;;;;;;6.50;5.90;;;;;;;9.68;69.05;98293.56;4999926;28;40560;-74
2021/05/07 06:08:01;;;;;;;6.40;5.80;;;;;;;9.56;67.92;98297.06;5006454;28;41009;-75
2021/05/07 06:10:28;;;;;;;5.97;5.47;;;;;;;9.47;68.61;98292.38;4991601;28;41775;-74
2021/05/07 06:12:57;;;;;;;6.60;5.87;;;;;;;9.33;67.27;98311.81;5008532;28;42769;-76
2021/05/07 06:15:24;;;;;;;7.17;6.47;;;;;;;9.65;66.66;98306.16;4991185;28;42625;-76
2021/05/07 06:17:51;;;;;;;6.40;5.80;;;;;;;10.14;66.86;98303.63;5004871;28;40666;-76
2021/05/07 06:20:19;;;;;;;6.80;6.20;;;;;;;10.27;64.66;98316.88;5005677;28;41409;-78
2021/05/07 06:22:48;;;;;;;5.53;5.03;;;;;;;10.29;64.51;98321.13;5004644;28;42413;-75
2021/05/07 06:25:18;;;;;;;5.57;5.07;;;;;;;10.20;63.50;98324.44;5000526;28;43075;-75
2021/05/07 06:27:45;;;;;;;7.03;6.30;;;;;;;10.10;63.35;98307.47;5008324;28;39074;-75
2021/05/07 06:30:15;;;;;;;5.93;5.33;;;;;;;10.26;63.22;98333.75;5007885;28;42431;-75
2021/05/07 06:32:43;;;;;;;6.00;5.47;;;;;;;10.19;63.41;98324.53;5007583;28;42718;-76
2021/05/07 06:35:11;;;;;;;6.07;5.40;;;;;;;10.28;63.70;98342.41;5009149;28;42524;-77
2021/05/07 06:37:39;;;;;;;6.17;5.43;;;;;;;10.14;63.93;98330.09;5007818;28;39933;-77
2021/05/07 06:40:08;;;;;;;6.17;5.33;;;;;;;10.28;64.03;98345.91;4992077;28;40617;-77
2021/05/07 06:42:37;;;;;;;5.47;4.83;;;;;;;10.52;63.26;98356.56;5008217;28;43208;-79
2021/05/07 06:45:06;;;;;;;5.80;5.20;;;;;;;10.66;63.08;98363.53;5004458;28;42243;-77
2021/05/07 06:47:34;;;;;;;5.90;5.23;;;;;;;10.90;62.84;98358.31;4991890;28;38833;-78
2021/05/07 06:50:01;;;;;;;5.80;5.20;;;;;;;11.33;61.62;98364.00;5008995;28;42681;-74
2021/05/07 06:52:30;;;;;;;6.67;4.90;;;;;;;11.46;59.44;98343.59;5007190;28;43446;-79
2021/05/07 06:54:57;;;;;;;5.27;4.60;;;;;;;11.74;59.25;98380.34;5023815;28;41647;-78
2021/05/07 06:57:25;;;;;;;5.07;4.57;;;;;;;11.78;59.36;98376.53;4991049;28;41300;-78
2021/05/07 06:59:53;;;;;;;6.93;4.80;;;;;;;11.96;60.07;98368.16;5007102;28;42393;-79
2021/05/07 07:02:20;;;;;;;5.53;4.10;;;;;;;12.04;58.69;98379.03;5002727;28;43190;-78
2021/05/07 07:04:48;;;;;;;5.20;4.20;;;;;;;12.17;56.88;98387.75;5001888;28;41338;-77
2021/05/07 07:07:16;;;;;;;4.70;4.30;;;;;;;12.12;56.61;98395.19;5002653;28;39268;-76
2021/05/07 07:09:43;;;;;;;6.27;3.93;;;;;;;12.15;56.42;98387.84;5005007;28;46790;-78
2021/05/07 07:12:10;;;;;;;6.03;4.87;;;;;;;12.29;54.37;98392.09;5004053;28;43275;-78
2021/05/07 07:14:38;;;;;;;5.53;4.30;;;;;;;12.49;55.48;98388.75;5002931;28;42339;-78
2021/05/07 07:17:06;;;;;;;6.17;3.77;;;;;;;12.38;54.63;98403.81;5003199;28;40074;-78
2021/05/07 07:19:34;;;;;;;4.70;4.27;;;;;;;12.12;54.59;98409.31;5000574;28;41557;-79
2021/05/07 07:22:02;;;;;;;6.07;4.57;;;;;;;12.48;54.30;98411.00;5000079;28;42792;-78
2021/05/07 07:24:29;;;;;;;5.10;4.50;;;;;;;13.06;52.00;98425.00;5004511;28;42780;-79
2021/05/07 07:26:56;;;;;;;4.70;4.30;;;;;;;14.28;50.87;98433.63;4992543;28;39714;-78
2021/05/07 07:29:24;;;;;;;5.50;4.40;;;;;;;15.47;47.01;98450.78;4991499;28;40654;-77
2021/05/07 07:31:52;;;;;;;5.67;4.60;;;;;;;16.73;45.67;98468.63;4988751;28;42699;-77
2021/05/07 07:34:19;;;;;;;4.40;4.00;;;;;;;16.26;44.06;98482.84;4993866;28;43627;-77
2021/05/07 07:36:47;;;;;;;4.27;3.87;;;;;;;15.96;44.87;98471.28;4990017;28;39055;-80
2021/05/07 07:39:18;;;;;;;5.30;4.47;;;;;;;16.06;44.21;98480.19;5007920;28;41887;-78
2021/05/07 07:41:46;;;;;;;5.90;4.60;;;;;;;15.58;45.21;98476.59;4991019;28;41914;-80
2021/05/07 07:44:14;;;;;;;5.43;4.93;;;;;;;14.97;44.23;98489.91;5008097;28;41229;-79
2021/05/07 07:46:41;;;;;;;9.97;9.00;;;;;;;14.94;44.59;98487.53;4990994;28;40288;-77
2021/05/07 07:49:09;;;;;;;6.10;5.60;;;;;;;14.74;45.51;98484.72;5009083;28;41627;-80
2021/05/07 07:51:36;;;;;;;5.47;4.97;;;;;;;14.57;46.46;98480.00;5008533;28;42754;-78
2021/05/07 07:54:06;;;;;;;7.13;5.37;;;;;;;14.53;45.50;98491.03;5006790;28;41953;-77
2021/05/07 07:56:34;;;;;;;7.50;6.07;;;;;;;14.40;44.06;98503.72;4991124;28;39872;-76
2021/05/07 07:59:02;;;;;;;6.90;5.23;;;;;;;14.25;45.93;98466.69;5006242;28;41008;-77
2021/05/07 08:01:29;;;;;;;6.37;5.30;;;;;;;14.25;45.20;98497.81;4991139;28;42658;-78
2021/05/07 08:03:56;;;;;;;5.90;5.10;;;;;;;14.71;44.31;98503.63;5005646;28;42298;-76
2021/05/07 08:06:24;;;;;;;5.97;5.47;;;;;;;15.22;44.50;98507.28;5006293;28;39801;-77
2021/05/07 08:08:51;;;;;;;6.30;5.53;;;;;;;15.23;45.29;98492.97;5007610;28;42185;-77
2021/05/07 08:11:18;;;;;;;6.40;5.80;;;;;;;15.37;43.50;98512.16;5008929;28;41711;-78
2021/05/07 08:13:46;;;;;;;5.80;5.30;;;;;;;15.50;43.28;98522.59;5010465;28;42200;-79
2021/05/07 08:16:14;;;;;;;6.53;5.93;;;;;;;15.82;42.59;98533.94;4993772;28;39025;-79
2021/05/07 08:18:41;;;;;;;6.30;5.80;;;;;;;17.33;41.45;98538.72;5009867;28;41426;-78
2021/05/07 08:21:08;;;;;;;6.67;6.00;;;;;;;18.69;39.83;98545.00;4995019;28;42617;-78
2021/05/07 08:23:36;;;;;;;7.63;6.87;;;;;;;18.55;37.41;98572.34;5009437;28;42215;-79
2021/05/07 08:26:03;;;;;;;7.30;6.67;;;;;;;17.66;37.33;98555.28;4994450;28;39101;-78
2021/05/07 08:28:30;;;;;;;6.83;6.13;;;;;;;17.57;38.27;98581.03;5008572;28;42392;-79
2021/05/07 08:30:58;;;;;;;6.87;6.27;;;;;;;18.81;37.04;98591.22;5009672;28;43673;-78
2021/05/07 08:33:25;;;;;;;6.17;5.67;;;;;;;19.77;36.22;98584.91;4992604;28;42660;-78
2021/05/07 08:35:53;;;;;;;7.17;6.50;;;;;;;21.50;32.92;98598.34;5010041;28;39946;-79
2021/05/07 08:38:20;;;;;;;6.17;5.57;;;;;;;20.77;33.81;98573.28;5010431;28;41736;-78
2021/05/07 08:40:48;;;;;;;6.07;5.57;;;;;;;22.39;32.89;98605.28;5009976;28;43458;-77
2021/05/07 08:43:16;;;;;;;7.40;6.70;;;;;;;22.05;30.80;98618.25;5008790;28;42265;-77
2021/05/07 08:45:43;;;;;;;6.97;6.30;;;;;;;21.72;28.75;98629.13;5009523;28;39642;-77
2021/05/07 08:48:12;;;;;;;5.97;5.33;;;;;;;22.70;28.75;98640.38;5009645;28;41762;-78
2021/05/07 08:50:39;;;;;;;5.20;4.70;;;;;;;24.56;27.26;98621.53;5009744;28;41809;-80
2021/05/07 08:53:09;;;;;;;6.23;5.73;;;;;;;26.28;25.17;98659.19;5006185;28;42618;-78
2021/05/07 08:55:36;;;;;;;6.40;5.90;;;;;;;27.63;23.94;98664.59;4989706;28;40616;-78
2021/05/07 08:58:08;;;;;;;6.60;6.00;;;;;;;27.61;24.15;98617.72;4985291;28;44386;-78
2021/05/07 09:00:35;;;;;;;6.23;5.83;;;;;;;27.30;22.80;98661.00;5008115;28;43440;-79
2021/05/07 09:03:06;;;;;;;6.43;5.93;;;;;;;26.82;24.55;98661.94;5008709;28;42195;-79
2021/05/07 09:05:36;;;;;;;6.37;5.90;;;;;;;26.43;25.68;98629.19;5011527;28;40625;-77
2021/05/07 09:08:04;;;;;;;5.93;5.53;;;;;;;26.64;24.57;98664.34;5008444;28;42278;-77
2021/05/07 09:10:33;;;;;;;5.53;5.07;;;;;;;26.95;25.38;98657.59;4992925;28;42898;-79
2021/05/07 09:13:00;;;;;;;6.10;5.60;;;;;;;25.80;25.44;98660.09;4993216;28;41357;-79
2021/05/07 09:15:42;;;;;;;5.97;5.47;;;;;;;24.05;26.85;98646.84;5008787;28;40586;-80
2021/05/07 09:18:11;;;;;;;6.47;5.87;;;;;;;23.04;28.60;98650.81;5008184;28;41667;-78
2021/05/07 09:20:43;;;;;;;7.33;6.73;;;;;;;23.17;28.60;98647.50;4993368;28;41859;-80
2021/05/07 09:23:12;;;;;;;6.17;5.77;;;;;;;22.51;28.36;98646.19;5007570;28;42839;-80
2021/05/07 09:25:41;;;;;;;6.67;6.07;;;;;;;22.27;29.94;98638.22;5006118;28;41704;-77
2021/05/07 09:28:10;;;;;;;6.17;5.67;;;;;;;21.53;29.37;98651.03;4973450;28;40602;-77
2021/05/07 09:30:37;;;;;;;7.40;6.70;;;;;;;21.07;29.40;98652.53;4989860;28;42416;-79
2021/05/07 09:33:07;;;;;;;5.87;5.37;;;;;;;21.16;30.57;98625.44;5009205;28;41437;-77
2021/05/07 09:35:35;;;;;;;6.67;6.10;;;;;;;21.23;28.85;98655.28;5008741;28;40461;-78
2021/05/07 09:38:05;;;;;;;5.57;5.07;;;;;;;22.55;28.74;98652.94;4992358;28;41687;-79
2021/05/07 09:40:34;;;;;;;6.20;5.60;;;;;;;23.75;27.23;98662.22;5009596;28;42892;-77
2021/05/07 09:43:07;;;;;;;5.07;4.67;;;;;;;24.80;26.41;98662.84;5009555;28;42151;-79
2021/05/07 09:45:35;;;;;;;4.70;4.30;;;;;;;25.26;27.29;98669.63;5008084;28;40537;-79
2021/05/07 09:48:02;;;;;;;4.97;4.67;;;;;;;26.28;24.93;98685.50;5007689;28;41660;-79
2021/05/07 09:50:39;;;;;;;4.40;4.10;;;;;;;27.88;23.08;98698.31;5004791;28;42703;-78
2021/05/07 09:53:21;;;;;;;4.47;4.07;;;;;;;29.58;21.29;98702.53;5001682;28;42348;-78
2021/05/07 09:55:51;;;;;;;4.43;4.10;;;;;;;30.71;18.55;98716.81;5009230;28;39640;-81
2021/05/07 09:58:18;;;;;;;4.43;4.13;;;;;;;30.91;18.39;98709.19;5004802;28;41746;-80
2021/05/07 10:00:46;;;;;;;5.03;4.50;;;;;;;29.39;19.29;98708.97;5009781;28;42447;-79
2021/05/07 10:03:13;;;;;;;4.33;3.93;;;;;;;27.27;20.69;98713.91;5008215;28;41030;-78
2021/05/07 10:05:40;;;;;;;4.37;3.97;;;;;;;25.60;21.89;98714.13;5008323;28;40662;-79
2021/05/07 10:08:07;;;;;;;4.77;4.20;;;;;;;25.26;22.27;98712.97;5009027;28;41397;-84
2021/05/07 10:10:38;;;;;;;3.93;3.63;;;;;;;24.78;22.90;98697.41;5008084;28;43228;-78
2021/05/07 10:13:07;;;;;;;4.90;4.47;;;;;;;26.00;22.37;98718.88;5006533;28;42903;-78
2021/05/07 10:15:36;;;;;;;4.23;3.83;;;;;;;26.80;21.48;98715.63;4990658;28;41626;-78
2021/05/07 10:18:05;;;;;;;4.20;3.80;;;;;;;27.25;20.50;98732.31;4980733;28;41858;-80
2021/05/07 10:20:33;;;;;;;5.23;4.70;;;;;;;28.26;18.59;98738.50;4990218;28;42917;-81
2021/05/07 10:23:13;;;;;;;5.67;4.13;;;;;;;29.37;18.64;98732.88;5005697;28;43114;-79
2021/05/07 10:25:41;;;;;;;4.20;3.80;;;;;;;30.61;18.47;98743.88;4987284;28;38658;-78
2021/05/07 10:28:16;;;;;;;4.13;3.83;;;;;;;30.62;18.59;98740.06;5003258;28;20576;-78
2021/05/07 10:30:43;;;;;;;3.90;3.60;;;;;;;28.67;19.18;98742.81;5008953;28;42753;-83
2021/05/07 10:33:15;;;;;;;5.13;4.20;;;;;;;26.60;19.97;98711.97;5007788;28;42274;-78
2021/05/07 10:35:43;;;;;;;3.50;3.30;;;;;;;25.50;22.39;98729.91;5008517;28;38936;-80
2021/05/07 10:38:13;;;;;;;4.60;4.20;;;;;;;24.29;23.42;98717.81;5008777;28;42129;-82
2021/05/07 10:40:43;;;;;;;4.93;3.70;;;;;;;23.42;25.48;98713.00;5008332;28;42737;-81
2021/05/07 10:43:10;;;;;;;3.47;3.17;;;;;;;23.85;25.29;98697.97;5004406;28;42441;-81
2021/05/07 10:45:46;;;;;;;4.57;3.50;;;;;;;23.28;25.37;98704.66;5006351;28;40075;-76
2021/05/07 10:48:18;;;;;;;4.00;3.53;;;;;;;23.80;25.07;98693.09;4991840;28;43200;-82
2021/05/07 10:50:47;;;;;;;4.00;3.60;;;;;;;25.82;22.56;98718.56;4991391;28;42416;-83
2021/05/07 10:53:32;;;;;;;6.80;6.13;;;;;;;27.80;20.74;98746.69;4984409;28;41353;-79
2021/05/07 10:56:01;;;;;;;3.47;3.17;;;;;;;28.62;21.11;98723.53;5003718;28;38949;-76
2021/05/07 10:58:36;;;;;;;2.90;2.70;;;;;;;27.28;20.79;98701.16;4997821;28;41786;-78
2021/05/07 11:01:25;;;;;;;3.77;3.47;;;;;;;26.09;19.72;98755.69;5006898;28;42500;-78
2021/05/07 11:04:04;;;;;;;3.97;3.20;;;;;;;25.60;20.64;98746.69;4997173;28;41986;-78
2021/05/07 11:06:33;;;;;;;3.87;3.00;;;;;;;25.64;22.07;98731.75;4993047;28;39815;-78
2021/05/07 11:09:12;;;;;;;4.60;3.57;;;;;;;26.04;21.34;98725.59;5004628;28;41549;-77
2021/05/07 11:11:40;;;;;;;3.83;3.20;;;;;;;27.09;21.21;98710.94;5005401;28;42752;-77
2021/05/07 11:14:09;;;;;;;3.73;3.43;;;;;;;28.43;19.18;98736.19;4974795;28;41270;-78
2021/05/07 11:16:40;;;;;;;3.27;3.00;;;;;;;29.28;18.88;98743.22;4999138;28;39800;-79
2021/05/07 11:19:08;;;;;;;3.30;2.90;;;;;;;29.37;17.88;98751.97;5005704;28;41632;-78
2021/05/07 11:21:35;;;;;;;3.90;2.50;;;;;;;29.11;19.60;98733.84;5001888;28;42693;-79
2021/05/07 11:24:13;;;;;;;3.90;3.60;;;;;;;28.55;18.57;98750.81;4990123;28;42717;-74
2021/05/07 11:26:41;;;;;;;2.53;2.33;;;;;;;28.62;20.37;98740.72;4971357;28;39635;-81
2021/05/07 11:29:08;;;;;;;2.00;1.90;;;;;;;29.04;19.64;98743.97;4971657;28;40973;-86
2021/05/07 11:31:35;;;;;;;2.73;2.53;;;;;;;29.33;18.19;98764.38;4992340;28;42853;-78
2021/05/07 11:34:02;;;;;;;3.50;3.20;;;;;;;28.19;17.66;98776.63;4987089;28;40766;-84
2021/05/07 11:36:29;;;;;;;2.93;2.73;;;;;;;26.42;19.42;98771.44;4987422;28;40012;-76
2021/05/07 11:38:56;;;;;;;3.20;2.90;;;;;;;24.75;21.05;98773.63;4986766;28;41859;-78
2021/05/07 11:41:26;;;;;;;4.33;2.93;;;;;;;23.36;21.82;98795.66;4974606;28;41782;-79
2021/05/07 11:43:55;;;;;;;4.37;3.97;;;;;;;21.68;28.35;98799.44;4987274;28;43221;-76